createdAt,value
2019-03-09T00:01:49.333Z,6.50
2019-03-09T00:04:18.950Z,7.57
2019-03-09T00:06:48.158Z,8.77
2019-03-09T00:09:18.491Z,6.00
2019-03-09T00:11:47.854Z,4.70
2019-03-09T00:14:17.449Z,7.07
2019-03-09T00:16:46.652Z,6.30
2019-03-09T00:19:15.945Z,7.20
2019-03-09T00:21:46.063Z,8.43
2019-03-09T00:24:46.373Z,7.90
2019-03-09T00:27:29.203Z,7.17
2019-03-09T00:30:13.497Z,8.90
2019-03-09T00:32:42.784Z,7.77
2019-03-09T00:35:12.150Z,9.63
2019-03-09T00:37:44.374Z,9.57
2019-03-09T00:40:13.918Z,6.33
2019-03-09T00:42:46.127Z,5.70
2019-03-09T00:45:15.352Z,8.03
2019-03-09T00:47:44.930Z,9.00
2019-03-09T00:50:14.234Z,10.03
2019-03-09T00:52:43.521Z,6.30
2019-03-09T00:55:13.140Z,6.77
2019-03-09T00:57:42.630Z,7.60
2019-03-09T01:00:17.559Z,11.03
2019-03-09T01:02:48.604Z,6.00
2019-03-09T01:05:18.045Z,6.67
2019-03-09T01:07:49.393Z,6.73
2019-03-09T01:10:18.815Z,7.77
2019-03-09T01:12:47.998Z,7.20
2019-03-09T01:15:17.727Z,4.97
2019-03-09T01:17:46.971Z,12.13
2019-03-09T01:20:19.691Z,6.53
2019-03-09T01:22:49.382Z,6.10
2019-03-09T01:25:18.699Z,5.90
2019-03-09T01:27:48.311Z,5.17
2019-03-09T01:30:18.329Z,6.40
2019-03-09T01:32:47.945Z,8.23
2019-03-09T01:35:17.277Z,6.30
2019-03-09T01:37:46.531Z,6.17
2019-03-09T01:40:16.095Z,7.83
2019-03-09T01:42:46.043Z,5.90
2019-03-09T01:45:15.641Z,4.57
2019-03-09T01:47:44.876Z,5.17
2019-03-09T01:50:14.145Z,3.97
2019-03-09T01:52:43.704Z,6.03
2019-03-09T01:55:15.060Z,6.87
2019-03-09T01:57:44.270Z,7.40
2019-03-09T02:00:15.311Z,5.10
2019-03-09T02:02:44.511Z,4.10
2019-03-09T02:05:14.122Z,6.77
2019-03-09T02:07:43.534Z,7.17
2019-03-09T02:10:13.118Z,3.40
2019-03-09T02:12:42.269Z,6.77
2019-03-09T02:15:12.639Z,6.17
2019-03-09T02:17:43.360Z,5.67
2019-03-09T02:20:14.097Z,4.80
2019-03-09T02:22:43.292Z,5.37
2019-03-09T02:25:12.861Z,4.03
2019-03-09T02:27:42.059Z,5.37
2019-03-09T02:30:14.769Z,5.63
2019-03-09T02:32:43.901Z,4.70
2019-03-09T02:35:13.245Z,4.77
2019-03-09T02:37:42.437Z,3.67
2019-03-09T02:40:14.371Z,9.27
2019-03-09T02:42:43.574Z,3.10
2019-03-09T02:45:14.124Z,5.57
2019-03-09T02:47:43.366Z,6.70
2019-03-09T02:50:14.110Z,3.30
2019-03-09T02:52:43.576Z,4.30
2019-03-09T02:55:13.109Z,7.27
2019-03-09T02:57:43.314Z,6.70
2019-03-09T03:00:14.809Z,3.63
2019-03-09T03:02:50.382Z,4.93
2019-03-09T03:05:21.959Z,2.57
2019-03-09T03:07:53.846Z,6.83
2019-03-09T03:10:23.104Z,4.13
2019-03-09T03:12:52.310Z,5.43
2019-03-09T03:15:30.627Z,2.87
2019-03-09T03:17:59.875Z,4.23
2019-03-09T03:20:29.021Z,5.50
2019-03-09T03:22:58.257Z,4.77
2019-03-09T03:25:27.395Z,3.63
2019-03-09T03:27:57.438Z,5.70
2019-03-09T03:30:28.701Z,6.97
2019-03-09T03:32:58.438Z,2.77
2019-03-09T03:35:27.617Z,3.47
2019-03-09T03:37:58.955Z,2.33
2019-03-09T03:40:30.628Z,4.63
2019-03-09T03:43:02.170Z,4.90
2019-03-09T03:45:36.674Z,2.40
2019-03-09T03:48:06.151Z,3.97
2019-03-09T03:50:36.059Z,4.17
2019-03-09T03:53:05.362Z,3.63
2019-03-09T03:55:35.601Z,2.30
2019-03-09T03:58:05.405Z,4.73
2019-03-09T04:00:34.658Z,2.63
2019-03-09T04:03:04.232Z,3.10
2019-03-09T04:05:33.522Z,2.30
2019-03-09T04:08:02.748Z,2.37
2019-03-09T04:10:32.815Z,2.50
2019-03-09T04:13:03.109Z,2.60
2019-03-09T04:15:32.285Z,2.50
2019-03-09T04:18:01.528Z,2.43
2019-03-09T04:20:31.052Z,2.77
2019-03-09T04:23:00.284Z,4.63
2019-03-09T04:25:29.478Z,2.13
2019-03-09T04:27:59.086Z,2.40
2019-03-09T04:30:28.646Z,2.43
2019-03-09T04:32:57.869Z,2.47
2019-03-09T04:35:27.122Z,3.17
2019-03-09T04:37:56.319Z,2.77
2019-03-09T04:40:25.573Z,3.00
2019-03-09T04:42:54.761Z,2.57
2019-03-09T04:45:23.932Z,3.30
2019-03-09T04:47:53.171Z,4.03
2019-03-09T04:50:22.632Z,3.33
2019-03-09T04:52:51.855Z,2.70
2019-03-09T04:55:21.198Z,3.33
2019-03-09T04:57:50.453Z,2.57
2019-03-09T05:00:21.605Z,3.10
2019-03-09T05:02:50.865Z,3.17
2019-03-09T05:05:21.085Z,2.60
2019-03-09T05:08:06.414Z,3.80
2019-03-09T05:10:56.782Z,4.83
2019-03-09T05:13:35.687Z,6.13
2019-03-09T05:16:04.875Z,5.90
2019-03-09T05:18:34.102Z,7.80
2019-03-09T05:21:03.271Z,9.97
2019-03-09T05:23:32.585Z,8.30
2019-03-09T05:26:02.092Z,10.00
2019-03-09T05:28:31.392Z,11.00
2019-03-09T05:31:01.022Z,12.90
2019-03-09T05:33:30.314Z,12.70
2019-03-09T05:35:59.463Z,14.47
2019-03-09T05:38:28.691Z,13.53
2019-03-09T05:40:58.225Z,13.80
2019-03-09T05:43:27.558Z,15.63
2019-03-09T05:45:57.920Z,17.17
2019-03-09T05:48:27.437Z,17.47
2019-03-09T05:50:56.636Z,16.33
2019-03-09T05:53:25.938Z,15.43
2019-03-09T05:55:55.237Z,14.10
2019-03-09T05:58:24.814Z,10.97
2019-03-09T06:00:54.106Z,8.73
2019-03-09T06:03:26.220Z,8.43
2019-03-09T06:06:04.899Z,6.90
2019-03-09T06:08:34.156Z,6.17
2019-03-09T06:11:08.520Z,7.27
2019-03-09T06:13:37.675Z,7.47
2019-03-09T06:16:10.013Z,7.97
2019-03-09T06:18:39.489Z,6.60
2019-03-09T06:21:09.106Z,6.53
2019-03-09T06:23:40.650Z,6.73
2019-03-09T06:26:10.083Z,6.47
2019-03-09T06:28:39.589Z,7.97
2019-03-09T06:31:08.788Z,6.03
2019-03-09T06:33:38.870Z,6.03
2019-03-09T06:37:07.057Z,7.17
2019-03-09T06:39:42.708Z,6.53
2019-03-09T06:42:51.304Z,7.47
2019-03-09T06:45:20.793Z,6.07
2019-03-09T06:47:51.215Z,7.37
2019-03-09T06:50:21.114Z,6.43
2019-03-09T06:52:50.407Z,8.07
2019-03-09T06:55:20.172Z,7.33
2019-03-09T06:57:49.434Z,8.40
2019-03-09T07:00:30.953Z,6.17
2019-03-09T07:03:02.203Z,7.73
2019-03-09T07:05:32.249Z,9.17
2019-03-09T07:08:01.818Z,9.23
2019-03-09T07:10:31.002Z,6.00
2019-03-09T07:13:00.408Z,7.07
2019-03-09T07:15:39.560Z,6.83
2019-03-09T07:18:29.972Z,7.60
2019-03-09T07:20:59.202Z,6.00
2019-03-09T07:23:28.402Z,6.30
2019-03-09T07:25:57.672Z,7.00
2019-03-09T07:28:27.384Z,8.17
2019-03-09T07:30:56.692Z,8.00
2019-03-09T07:33:41.820Z,8.63
2019-03-09T07:36:28.413Z,8.00
2019-03-09T07:38:57.520Z,8.53
2019-03-09T07:41:26.796Z,7.30
2019-03-09T07:43:56.000Z,8.60
2019-03-09T07:46:27.476Z,7.33
2019-03-09T07:48:56.674Z,8.30
2019-03-09T07:51:25.949Z,9.20
2019-03-09T07:53:55.891Z,7.67
2019-03-09T07:56:25.088Z,6.20
2019-03-09T07:58:54.592Z,5.93
2019-03-09T08:01:24.149Z,8.10
2019-03-09T08:03:53.457Z,7.20
2019-03-09T08:06:24.739Z,8.20
2019-03-09T08:08:54.077Z,7.33
2019-03-09T08:11:24.822Z,9.27
2019-03-09T08:13:54.120Z,8.87
2019-03-09T08:16:23.347Z,7.13
2019-03-09T08:18:55.821Z,6.90
2019-03-09T08:21:25.026Z,9.30
2019-03-09T08:23:56.599Z,6.10
2019-03-09T08:26:25.968Z,8.93
2019-03-09T08:28:55.246Z,9.00
2019-03-09T08:31:24.504Z,5.73
2019-03-09T08:34:05.963Z,8.20
2019-03-09T08:36:35.252Z,10.17
2019-03-09T08:39:05.287Z,7.67
2019-03-09T08:41:34.876Z,5.97
2019-03-09T08:44:07.974Z,8.30
2019-03-09T08:46:37.558Z,11.43
2019-03-09T08:49:06.823Z,10.30
2019-03-09T08:51:38.019Z,6.77
2019-03-09T08:54:07.211Z,8.03
2019-03-09T08:56:38.480Z,7.93
2019-03-09T08:59:10.605Z,6.93
2019-03-09T09:01:39.789Z,6.10
2019-03-09T09:04:09.055Z,7.63
2019-03-09T09:06:38.481Z,9.03
2019-03-09T09:09:07.854Z,10.03
2019-03-09T09:11:37.102Z,8.67
2019-03-09T09:14:07.425Z,7.33
2019-03-09T09:16:36.745Z,9.70
2019-03-09T09:19:05.940Z,8.80
2019-03-09T09:21:35.269Z,7.13
2019-03-09T09:24:04.540Z,7.23
2019-03-09T09:26:34.322Z,8.67
2019-03-09T09:29:03.499Z,8.97
2019-03-09T09:31:32.744Z,5.43
2019-03-09T09:34:02.559Z,5.73
2019-03-09T09:36:31.810Z,6.60
2019-03-09T09:39:01.013Z,13.23
2019-03-09T09:41:33.132Z,7.03
2019-03-09T09:44:02.723Z,9.10
2019-03-09T09:46:32.073Z,10.13
2019-03-09T09:49:01.274Z,7.23
2019-03-09T09:51:30.487Z,5.63
2019-03-09T09:54:02.802Z,12.23
2019-03-09T09:56:32.287Z,11.90
2019-03-09T09:59:01.521Z,7.53
2019-03-09T10:01:32.882Z,10.53
2019-03-09T10:04:04.952Z,9.80
2019-03-09T10:06:34.541Z,13.50
2019-03-09T10:09:06.810Z,9.17
2019-03-09T10:11:36.006Z,7.17
2019-03-09T10:14:05.343Z,7.70
2019-03-09T10:16:34.598Z,6.87
2019-03-09T10:19:03.769Z,6.23
2019-03-09T10:21:33.502Z,9.40
2019-03-09T10:24:02.870Z,13.67
2019-03-09T10:26:34.925Z,7.30
2019-03-09T10:29:04.206Z,7.53
2019-03-09T10:31:33.924Z,10.50
2019-03-09T10:34:03.420Z,7.83
2019-03-09T10:36:32.968Z,6.43
2019-03-09T10:39:02.228Z,6.60
2019-03-09T10:41:31.465Z,8.13
2019-03-09T10:44:00.624Z,10.80
2019-03-09T10:46:30.262Z,10.40
2019-03-09T10:48:59.598Z,7.53
2019-03-09T10:51:28.867Z,10.60
2019-03-09T10:53:58.167Z,12.00
2019-03-09T10:56:27.441Z,8.87
2019-03-09T10:58:56.825Z,10.20
2019-03-09T11:01:26.091Z,12.43
2019-03-09T11:03:55.872Z,9.80
2019-03-09T11:06:25.119Z,11.57
2019-03-09T11:08:54.351Z,5.53
2019-03-09T11:11:23.762Z,11.50
2019-03-09T11:13:53.052Z,6.60
2019-03-09T11:16:22.711Z,7.70
2019-03-09T11:18:56.103Z,9.90
2019-03-09T11:21:25.665Z,6.33
2019-03-09T11:23:55.166Z,9.40
2019-03-09T11:26:24.513Z,8.03
2019-03-09T11:28:53.876Z,8.13
2019-03-09T11:31:23.323Z,11.97
2019-03-09T11:33:52.501Z,8.10
2019-03-09T11:36:26.796Z,10.40
2019-03-09T11:38:57.083Z,10.47
2019-03-09T11:41:26.521Z,7.13
2019-03-09T11:43:57.840Z,5.50
2019-03-09T11:46:29.495Z,7.90
2019-03-09T11:49:00.600Z,9.63
2019-03-09T11:51:30.172Z,7.07
2019-03-09T11:53:59.383Z,3.10
2019-03-09T11:56:36.329Z,5.57
2019-03-09T11:59:08.391Z,3.53
2019-03-09T12:01:40.454Z,5.20
2019-03-09T12:04:10.527Z,5.23
2019-03-09T12:06:42.433Z,6.90
2019-03-09T12:09:12.054Z,6.10
2019-03-09T12:11:41.225Z,5.30
2019-03-09T12:14:10.648Z,2.93
2019-03-09T12:16:40.018Z,6.40
2019-03-09T12:19:28.748Z,5.77
2019-03-09T12:22:02.128Z,3.93
2019-03-09T12:24:32.226Z,5.83
2019-03-09T12:27:01.486Z,7.30
2019-03-09T12:29:30.822Z,13.07
2019-03-09T12:32:00.866Z,4.07
2019-03-09T12:34:30.079Z,4.63
2019-03-09T12:36:59.365Z,6.00
2019-03-09T12:39:28.795Z,8.60
2019-03-09T12:41:58.078Z,6.17
2019-03-09T12:44:29.649Z,7.87
2019-03-09T12:46:58.874Z,5.87
2019-03-09T12:49:28.264Z,7.93
2019-03-09T12:52:00.317Z,6.83
2019-03-09T12:54:31.823Z,11.83
2019-03-09T12:57:01.356Z,9.50
2019-03-09T12:59:30.679Z,8.67
2019-03-09T13:02:01.059Z,8.57
2019-03-09T13:04:30.461Z,8.10
2019-03-09T13:06:59.780Z,11.53
2019-03-09T13:09:29.326Z,9.50
2019-03-09T13:11:58.693Z,9.43
2019-03-09T13:14:27.918Z,12.33
2019-03-09T13:16:57.238Z,9.17
2019-03-09T13:19:29.496Z,11.27
2019-03-09T13:21:58.758Z,12.03
2019-03-09T13:24:28.371Z,12.50
2019-03-09T13:27:00.470Z,9.93
2019-03-09T13:29:30.378Z,15.10
2019-03-09T13:31:59.765Z,13.53
2019-03-09T13:34:29.020Z,9.97
2019-03-09T13:36:59.168Z,16.43
2019-03-09T13:39:31.383Z,13.10
2019-03-09T13:42:00.993Z,15.87
2019-03-09T13:44:30.351Z,13.93
2019-03-09T13:46:59.672Z,20.40
2019-03-09T13:49:32.111Z,15.73
2019-03-09T13:52:01.771Z,15.30
2019-03-09T13:54:30.968Z,19.17
2019-03-09T13:57:00.224Z,17.23
2019-03-09T13:59:30.273Z,15.97
2019-03-09T14:02:02.534Z,18.33
2019-03-09T14:04:31.858Z,21.87
2019-03-09T14:07:04.774Z,21.80
2019-03-09T14:09:35.753Z,21.83
2019-03-09T14:12:05.227Z,17.80
2019-03-09T14:14:34.303Z,14.27
2019-03-09T14:17:08.266Z,16.83
2019-03-09T14:19:39.882Z,20.27
2019-03-09T14:22:10.280Z,19.83
2019-03-09T14:24:39.791Z,17.03
2019-03-09T14:27:16.001Z,18.37
2019-03-09T14:29:45.621Z,18.30
2019-03-09T14:32:15.426Z,25.83
2019-03-09T14:34:47.330Z,17.87
2019-03-09T14:37:18.211Z,20.87
2019-03-09T14:39:49.398Z,17.50
2019-03-09T14:42:19.195Z,19.80
2019-03-09T14:44:53.006Z,19.13
2019-03-09T14:47:23.861Z,18.83
2019-03-09T14:49:56.452Z,20.47
2019-03-09T14:52:26.020Z,24.27
2019-03-09T14:54:57.157Z,21.20
2019-03-09T14:57:26.558Z,24.47
2019-03-09T14:59:59.181Z,19.40
2019-03-09T15:02:28.820Z,24.30
2019-03-09T15:04:58.741Z,21.53
2019-03-09T15:07:28.323Z,25.63
2019-03-09T15:09:57.945Z,31.97
2019-03-09T15:12:27.314Z,18.87
2019-03-09T15:14:56.586Z,26.43
2019-03-09T15:17:26.197Z,22.40
2019-03-09T15:19:55.526Z,26.63
2019-03-09T15:22:25.338Z,24.67
2019-03-09T15:24:54.762Z,19.40
2019-03-09T15:27:24.494Z,22.40
2019-03-09T15:29:56.011Z,17.67
2019-03-09T15:32:26.074Z,22.83
2019-03-09T15:35:00.444Z,26.80
2019-03-09T15:37:32.460Z,19.53
2019-03-09T15:40:06.506Z,17.40
2019-03-09T15:42:38.517Z,25.40
2019-03-09T15:45:08.326Z,19.90
2019-03-09T15:47:37.990Z,16.13
2019-03-09T15:50:11.666Z,16.50
2019-03-09T15:53:02.145Z,20.57
2019-03-09T15:55:36.695Z,19.27
2019-03-09T15:58:09.514Z,19.27
2019-03-09T16:00:39.938Z,20.30
2019-03-09T16:03:09.647Z,15.03
2019-03-09T16:05:39.546Z,15.03
2019-03-09T16:08:09.293Z,15.37
2019-03-09T16:10:39.440Z,22.57
2019-03-09T16:13:11.415Z,19.77
2019-03-09T16:15:43.054Z,21.20
2019-03-09T16:18:13.028Z,22.73
2019-03-09T16:20:48.518Z,19.00
2019-03-09T16:23:19.737Z,19.73
2019-03-09T16:25:49.063Z,21.07
2019-03-09T16:28:18.312Z,17.43
2019-03-09T16:30:47.779Z,15.37
2019-03-09T16:33:17.247Z,10.90
2019-03-09T16:35:46.603Z,14.07
2019-03-09T16:38:16.060Z,5.13
2019-03-09T16:40:45.922Z,7.70
2019-03-09T16:43:19.982Z,6.83
2019-03-09T16:45:54.059Z,5.23
2019-03-09T16:48:23.671Z,4.33
2019-03-09T16:50:58.455Z,5.27
2019-03-09T16:53:28.452Z,9.67
2019-03-09T16:55:58.355Z,4.17
2019-03-09T16:58:27.795Z,4.27
2019-03-09T17:00:57.607Z,5.60
2019-03-09T17:03:30.125Z,5.93
2019-03-09T17:05:59.621Z,7.17
2019-03-09T17:08:28.922Z,8.97
2019-03-09T17:10:58.766Z,2.90
2019-03-09T17:13:28.444Z,4.83
2019-03-09T17:15:57.770Z,6.33
2019-03-09T17:18:27.868Z,5.57
2019-03-09T17:20:57.815Z,7.73
2019-03-09T17:23:27.088Z,5.37
2019-03-09T17:26:00.609Z,8.00
2019-03-09T17:28:30.273Z,7.00
2019-03-09T17:30:59.735Z,9.20
2019-03-09T17:33:28.998Z,10.17
2019-03-09T17:35:58.681Z,7.03
2019-03-09T17:38:28.002Z,10.73
2019-03-09T17:40:57.296Z,12.93
2019-03-09T17:43:26.748Z,10.03
2019-03-09T17:45:55.964Z,10.70
2019-03-09T17:48:25.237Z,10.20
2019-03-09T17:53:50.777Z,11.67
2019-03-09T17:56:20.082Z,10.70
2019-03-09T17:58:49.524Z,12.13
2019-03-09T18:01:39.848Z,10.27
2019-03-09T18:04:10.349Z,10.03
2019-03-09T18:06:40.050Z,12.70
2019-03-09T18:09:09.271Z,9.33
2019-03-09T18:11:38.561Z,10.30
2019-03-09T18:17:05.301Z,5.50
2019-03-09T18:19:34.709Z,12.20
2019-03-09T18:22:04.137Z,5.80
2019-03-09T18:25:22.257Z,11.40
2019-03-09T18:27:52.786Z,10.60
2019-03-09T18:32:57.290Z,14.83
2019-03-09T18:35:26.582Z,11.13
2019-03-09T18:38:14.930Z,9.43
2019-03-09T18:47:02.391Z,13.37
2019-03-09T18:49:50.744Z,9.27
2019-03-09T18:52:20.035Z,13.23
2019-03-09T18:55:12.022Z,15.90
2019-03-09T18:57:41.566Z,9.70
2019-03-09T19:00:12.836Z,13.80
2019-03-09T19:02:43.513Z,11.80
2019-03-09T19:05:14.583Z,11.87
2019-03-09T19:07:47.844Z,8.70
2019-03-09T19:10:37.984Z,15.77
2019-03-09T19:13:08.827Z,10.87
2019-03-09T19:15:39.079Z,9.73
2019-03-09T19:18:12.931Z,14.57
2019-03-09T19:20:43.073Z,9.93
2019-03-09T19:23:33.148Z,10.87
2019-03-09T19:26:21.597Z,12.73
2019-03-09T19:28:51.382Z,12.90
2019-03-09T19:31:25.827Z,12.90
2019-03-09T19:33:55.053Z,12.30
2019-03-09T19:36:24.488Z,13.83
2019-03-09T19:44:25.848Z,10.43
2019-03-09T19:46:55.383Z,13.03
2019-03-09T19:49:24.729Z,13.93
2019-03-09T19:54:43.465Z,15.37
2019-03-09T19:57:33.479Z,12.50
2019-03-09T20:00:02.921Z,9.13
2019-03-09T20:02:32.229Z,14.03
2019-03-09T20:05:03.635Z,15.00
2019-03-09T20:07:32.975Z,12.13
2019-03-09T20:10:02.409Z,13.30
2019-03-09T20:12:32.234Z,14.27
2019-03-09T20:27:12.500Z,11.27
2019-03-09T20:32:42.901Z,13.23
2019-03-09T20:35:30.991Z,15.00
2019-03-09T20:40:45.089Z,10.87
2019-03-09T20:43:14.783Z,9.27
2019-03-09T20:46:05.956Z,11.97
2019-03-09T20:55:10.681Z,6.43
2019-03-09T20:57:40.370Z,8.23
2019-03-09T21:03:29.355Z,8.67
2019-03-09T21:12:09.230Z,11.53
2019-03-09T21:14:58.625Z,7.17
2019-03-09T21:17:47.632Z,8.03
2019-03-09T21:26:07.282Z,9.80
2019-03-09T21:29:16.986Z,9.57
2019-03-09T21:31:46.264Z,9.33
2019-03-09T21:34:15.792Z,10.27
2019-03-09T21:37:26.802Z,5.13
2019-03-09T21:43:29.613Z,9.73
2019-03-09T21:46:17.686Z,10.37
2019-03-09T21:48:57.652Z,10.40
2019-03-09T21:54:50.430Z,10.30
2019-03-09T21:57:19.713Z,6.20
2019-03-09T21:59:49.243Z,10.40
2019-03-09T22:02:19.124Z,13.63
2019-03-09T22:04:48.723Z,13.00
2019-03-09T22:07:18.264Z,14.27
2019-03-09T22:10:08.532Z,12.00
2019-03-09T22:16:21.733Z,15.60
2019-03-09T22:18:53.035Z,10.27
2019-03-09T22:21:22.420Z,14.57
2019-03-09T22:23:53.522Z,16.90
2019-03-09T22:26:22.838Z,12.07
2019-03-09T22:28:52.362Z,14.80
2019-03-09T22:31:21.723Z,18.83
2019-03-09T22:33:51.103Z,13.33
2019-03-09T22:39:37.384Z,12.17
2019-03-09T22:42:46.155Z,18.00
2019-03-09T22:45:18.010Z,15.70
2019-03-09T22:48:08.136Z,12.90
2019-03-09T22:50:37.803Z,15.27
2019-03-09T22:53:48.746Z,17.60
2019-03-09T22:56:18.225Z,18.33
2019-03-09T22:58:48.029Z,18.57
2019-03-09T23:01:17.413Z,17.83
2019-03-09T23:03:46.743Z,23.43
2019-03-09T23:09:25.018Z,20.67
2019-03-09T23:12:14.767Z,24.37
2019-03-09T23:14:55.722Z,25.50
2019-03-09T23:17:45.414Z,25.23
2019-03-09T23:20:35.212Z,28.90
2019-03-09T23:23:04.527Z,27.87
2019-03-09T23:26:15.234Z,32.10
2019-03-09T23:29:22.589Z,27.73
2019-03-09T23:31:51.903Z,30.37
2019-03-09T23:34:21.102Z,32.70
2019-03-09T23:37:10.817Z,31.17
2019-03-09T23:39:40.006Z,30.73
2019-03-09T23:42:09.259Z,27.83
2019-03-09T23:44:38.479Z,27.87
2019-03-09T23:47:07.732Z,32.80
2019-03-09T23:49:36.981Z,35.60
2019-03-09T23:52:06.211Z,34.07
2019-03-09T23:54:35.737Z,32.53
2019-03-09T23:57:24.166Z,32.90
2019-03-09T23:59:53.399Z,23.70
